Afton, Iowa
Current Conditions -  °F | °C
As of 6:55 PM on Monday 26 Jan 2015 (Local Time) from KCSQ Reporting Station
Clear Clear  
Wind Chill: 35°   Ceiling: Unl
Heat Index: 41°   Visibility: 10mi
Dew Point: 36°   Wind: 10mph
Humidity: 81%   Direction: 300°WNW
Pressure: 29.95"   Gusts: NA
Location:  41.03°N, 94.2°W
Report Text: KCSQ 270055Z AUTO 30009KT 10SM CLR 05/02 A2995 RMK AO2
Loading
Personal Weather Stations






























Interactive Weather Map New forecast layout! Learn more

10-Day Weather Forecast

Advertisements
Track Severe Weather on mobile